Time;durP1;ratioP1;P1;durP2;ratioP2;P2;SDS_P1;SDS_P2;PMS_P1;PMS_P2;Temp;Humidity;BMP_temperature;BMP_pressure;BME280_temperature;BME280_humidity;BME280_pressure;Samples;Min_cycle;Max_cycle;Signal;HPM_P1;HPM_P2
2023/01/11 00:00:30;;;;;;;0.20;0.20;;;;;;;4.40;67.64;95764.72;4366377;32;20222;-61
2023/01/11 00:03:00;;;;;;;0.10;0.10;;;;;;;4.33;68.16;95769.38;4375017;32;20185;-61
2023/01/11 00:05:26;;;;;;;0.10;0.10;;;;;;;4.32;68.27;95773.03;4385674;32;20240;-60
2023/01/11 00:07:51;;;;;;;1.13;0.40;;;;;;;4.10;68.80;95775.62;4380636;32;20362;-61
2023/01/11 00:10:17;;;;;;;0.20;0.20;;;;;;;4.32;68.31;95768.56;4391232;32;20195;-62
2023/01/11 00:12:43;;;;;;;0.37;0.37;;;;;;;4.41;67.56;95756.59;4390446;32;20199;-60
2023/01/11 00:15:09;;;;;;;0.17;0.17;;;;;;;4.50;67.33;95749.09;4373690;32;20304;-61
2023/01/11 00:17:35;;;;;;;0.10;0.10;;;;;;;4.51;67.29;95748.06;4385039;32;20188;-61
2023/01/11 00:20:00;;;;;;;0.10;0.10;;;;;;;4.64;67.16;95750.31;4376447;32;20333;-60
2023/01/11 00:22:27;;;;;;;0.10;0.10;;;;;;;4.62;67.24;95741.88;4387964;32;20181;-61
2023/01/11 00:24:52;;;;;;;0.10;0.10;;;;;;;4.69;67.10;95742.50;4378076;32;20227;-61
2023/01/11 00:27:17;;;;;;;0.27;0.27;;;;;;;4.65;66.87;95741.41;4392660;32;20294;-60
2023/01/11 00:29:43;;;;;;;0.73;0.60;;;;;;;4.31;68.57;95739.94;4375851;32;20203;-61
2023/01/11 00:32:09;;;;;;;0.10;0.10;;;;;;;4.29;68.87;95736.75;4389970;32;20188;-61
2023/01/11 00:34:34;;;;;;;0.30;0.30;;;;;;;4.36;69.57;95737.38;4376233;32;20188;-61
2023/01/11 00:37:00;;;;;;;0.10;0.10;;;;;;;4.43;69.63;95735.34;4389991;32;20267;-61
2023/01/11 00:39:25;;;;;;;0.23;0.23;;;;;;;4.30;70.73;95733.09;4368622;32;20207;-61
2023/01/11 00:50:19;;;;;;;0.30;0.30;;;;;;;4.26;72.21;95721.47;4312305;33;20282;-61
2023/01/11 00:52:44;;;;;;;0.00;0.00;;;;;;;4.17;72.77;95718.47;4358973;32;20268;-61
2023/01/11 00:55:09;;;;;;;0.10;0.10;;;;;;;4.25;72.46;95719.88;4386430;32;20226;-60
2023/01/11 00:57:35;;;;;;;0.57;0.57;;;;;;;4.36;72.17;95716.38;4371523;32;20208;-61
2023/01/11 01:00:02;;;;;;;0.10;0.10;;;;;;;4.38;71.66;95714.28;4346675;32;20295;-61
2023/01/11 01:02:28;;;;;;;0.73;0.67;;;;;;;4.29;72.31;95716.53;4388069;32;20184;-61
2023/01/11 01:04:54;;;;;;;3.63;0.47;;;;;;;4.26;72.26;95721.47;4372917;32;20303;-61
2023/01/11 01:07:19;;;;;;;0.20;0.20;;;;;;;4.29;72.09;95716.53;4377459;32;20212;-61
2023/01/11 01:09:44;;;;;;;0.27;0.27;;;;;;;4.35;71.68;95714.78;4389400;32;20192;-61
2023/01/11 01:12:10;;;;;;;0.07;0.07;;;;;;;4.43;71.26;95716.97;4379112;32;21164;-60
2023/01/11 01:14:35;;;;;;;0.50;0.50;;;;;;;4.28;71.75;95725.47;4352296;32;20192;-61
2023/01/11 01:17:07;;;;;;;0.20;0.20;;;;;;;4.62;70.65;95720.06;4384527;32;20176;-60
2023/01/11 01:19:34;;;;;;;1.13;0.43;;;;;;;4.63;71.12;95727.72;4373059;32;20228;-60
2023/01/11 01:22:00;;;;;;;0.00;0.00;;;;;;;4.46;71.63;95722.53;4363150;32;20289;-61
2023/01/11 01:24:29;;;;;;;0.10;0.10;;;;;;;4.45;71.73;95723.56;4365615;32;20321;-61
2023/01/11 01:26:57;;;;;;;0.10;0.10;;;;;;;4.45;72.43;95726.19;4375636;32;20193;-61
2023/01/11 01:29:24;;;;;;;0.00;0.00;;;;;;;4.42;73.04;95739.00;4389360;32;20305;-60
2023/01/11 01:31:50;;;;;;;0.17;0.17;;;;;;;4.35;73.10;95726.09;4382308;32;20283;-61
2023/01/11 01:34:15;;;;;;;0.30;0.30;;;;;;;4.67;72.43;95726.19;4372223;32;20273;-61
2023/01/11 01:36:40;;;;;;;0.30;0.30;;;;;;;4.76;71.75;95724.72;4371161;32;20301;-60
2023/01/11 01:39:06;;;;;;;0.27;0.27;;;;;;;4.40;73.06;95722.69;4347454;32;20227;-61
2023/01/11 01:41:33;;;;;;;0.00;0.00;;;;;;;4.40;75.08;95715.63;4369173;32;20302;-60
2023/01/11 01:44:01;;;;;;;0.23;0.23;;;;;;;4.75;73.77;95719.72;4364629;32;20281;-60
2023/01/11 01:46:30;;;;;;;0.10;0.10;;;;;;;4.89;73.69;95730.63;4384159;32;20284;-61
2023/01/11 01:49:21;;;;;;;0.00;0.00;;;;;;;4.87;74.77;95725.59;4375166;32;20279;-61
2023/01/11 01:51:53;;;;;;;0.53;0.20;;;;;;;4.90;74.79;95717.22;4375685;32;20280;-60
2023/01/11 01:54:24;;;;;;;0.30;0.30;;;;;;;4.82;75.49;95715.84;4378241;32;20316;-61
2023/01/11 01:56:53;;;;;;;0.40;0.27;;;;;;;4.74;77.25;95715.50;4387814;32;20276;-60
2023/01/11 01:59:22;;;;;;;0.10;0.10;;;;;;;4.95;76.99;95713.88;4387073;32;20291;-61
2023/01/11 02:01:48;;;;;;;0.03;0.03;;;;;;;4.86;78.33;95712.72;4377321;32;20288;-61
2023/01/11 02:04:25;;;;;;;0.10;0.10;;;;;;;4.66;80.56;95713.28;4370082;32;20273;-61
2023/01/11 02:06:57;;;;;;;0.10;0.10;;;;;;;4.62;82.20;95707.72;4380305;32;20272;-61
2023/01/11 02:09:31;;;;;;;0.10;0.10;;;;;;;4.61;83.20;95702.72;4371785;32;20312;-61
2023/01/11 02:11:58;;;;;;;0.70;0.20;;;;;;;4.84;83.10;95700.63;4367789;32;20324;-61
2023/01/11 02:14:26;;;;;;;0.10;0.10;;;;;;;4.67;84.34;95702.53;4357727;32;20285;-61
2023/01/11 02:16:52;;;;;;;0.10;0.10;;;;;;;4.77;84.22;95700.03;4370915;32;20290;-61
2023/01/11 02:19:23;;;;;;;0.10;0.10;;;;;;;4.84;84.16;95699.81;4374297;32;20268;-61
2023/01/11 02:22:21;;;;;;;0.20;0.20;;;;;;;4.96;84.69;95697.84;4381374;32;20180;-61
2023/01/11 02:24:59;;;;;;;0.40;0.20;;;;;;;4.78;86.13;95698.97;4386642;32;20288;-61
2023/01/11 02:27:50;;;;;;;4.90;0.43;;;;;;;4.75;87.56;95691.59;4386037;32;20271;-61
2023/01/11 02:30:43;;;;;;;0.10;0.10;;;;;;;4.58;89.11;95692.69;4376995;32;20303;-61
2023/01/11 02:33:22;;;;;;;0.00;0.00;;;;;;;4.20;90.98;95686.47;4375287;32;20277;-61
2023/01/11 02:36:05;;;;;;;1.83;0.37;;;;;;;4.49;90.72;95694.97;4380811;32;20275;-60
2023/01/11 02:38:46;;;;;;;0.00;0.00;;;;;;;4.47;90.56;95681.28;4364314;32;20288;-61
2023/01/11 02:41:19;;;;;;;0.07;0.07;;;;;;;4.37;91.13;95670.66;4371025;32;20418;-61
2023/01/11 02:46:57;;;;;;;0.30;0.30;;;;;;;4.56;90.64;95669.31;4372526;32;20327;-61
2023/01/11 02:49:57;;;;;;;0.00;0.00;;;;;;;4.68;89.73;95666.56;4377506;32;20528;-61
2023/01/11 02:52:35;;;;;;;0.00;0.00;;;;;;;4.82;88.64;95668.53;4373479;32;20326;-61
2023/01/11 02:55:03;;;;;;;0.00;0.00;;;;;;;4.63;89.59;95669.13;4364712;32;20288;-60
2023/01/11 02:57:30;;;;;;;0.10;0.10;;;;;;;4.51;90.61;95666.63;4374476;32;20264;-61
2023/01/11 02:59:56;;;;;;;0.03;0.03;;;;;;;4.58;90.42;95663.81;4386505;32;20272;-61
2023/01/11 03:02:23;;;;;;;0.00;0.00;;;;;;;4.69;90.30;95655.00;4364243;32;20269;-61
2023/01/11 03:04:48;;;;;;;0.30;0.30;;;;;;;4.62;90.39;95649.13;4367628;32;20330;-61
2023/01/11 03:07:58;;;;;;;0.00;0.00;;;;;;;4.71;90.63;95647.66;4380378;32;20285;-61
2023/01/11 03:10:39;;;;;;;0.03;0.03;;;;;;;4.76;90.54;95642.47;4387072;32;20189;-60
2023/01/11 03:13:39;;;;;;;0.00;0.00;;;;;;;4.93;89.74;95637.88;4391123;32;20299;-61
2023/01/11 03:16:16;;;;;;;0.20;0.20;;;;;;;4.82;90.14;95637.00;4366543;32;20357;-61
2023/01/11 03:18:51;;;;;;;0.13;0.13;;;;;;;4.98;89.46;95629.25;4371944;32;20386;-60
2023/01/11 03:21:26;;;;;;;0.10;0.10;;;;;;;4.73;90.44;95635.06;4387982;32;20325;-60
2023/01/11 03:23:51;;;;;;;0.00;0.00;;;;;;;5.11;89.27;95626.19;4377371;32;20276;-61
2023/01/11 03:26:37;;;;;;;0.00;0.00;;;;;;;4.98;89.22;95624.00;4374697;32;20273;-60
2023/01/11 03:29:28;;;;;;;0.00;0.00;;;;;;;5.15;89.06;95608.88;4365954;32;20225;-60
2023/01/11 03:32:11;;;;;;;0.00;0.00;;;;;;;5.17;88.47;95612.06;4378577;32;20319;-60
2023/01/11 03:34:44;;;;;;;0.00;0.00;;;;;;;5.10;88.74;95609.63;4376193;32;20296;-60
2023/01/11 03:37:16;;;;;;;0.20;0.20;;;;;;;5.25;88.60;95606.31;4374194;32;20280;-60
2023/01/11 03:39:59;;;;;;;0.00;0.00;;;;;;;5.27;88.53;95598.97;4374957;32;20320;-60
2023/01/11 03:42:27;;;;;;;0.10;0.10;;;;;;;5.09;89.46;95594.13;4387710;32;20267;-60
2023/01/11 03:44:56;;;;;;;0.00;0.00;;;;;;;4.99;89.91;95591.41;4376681;32;20312;-60
2023/01/11 03:47:25;;;;;;;0.10;0.10;;;;;;;4.99;90.19;95584.28;4388628;32;20294;-60
2023/01/11 03:49:53;;;;;;;0.00;0.00;;;;;;;5.11;89.85;95592.03;4393091;32;20272;-60
2023/01/11 03:52:26;;;;;;;6.70;0.47;;;;;;;5.16;88.62;95578.91;4390173;32;20351;-60
2023/01/11 03:54:55;;;;;;;0.00;0.00;;;;;;;5.23;88.73;95573.44;4387933;32;20290;-60
2023/01/11 03:57:29;;;;;;;0.07;0.07;;;;;;;5.33;88.44;95571.66;4391196;32;20272;-61
2023/01/11 03:59:55;;;;;;;0.03;0.03;;;;;;;5.28;88.01;95576.88;4387764;32;20290;-61
2023/01/11 04:02:24;;;;;;;0.00;0.00;;;;;;;5.24;88.58;95570.53;4386740;32;20272;-61
2023/01/11 04:04:50;;;;;;;0.00;0.00;;;;;;;5.44;87.98;95569.88;4381958;32;20198;-60
2023/01/11 04:07:17;;;;;;;0.07;0.07;;;;;;;5.47;87.07;95567.53;4379111;32;20426;-61
2023/01/11 04:09:44;;;;;;;0.00;0.00;;;;;;;5.30;87.84;95569.53;4374342;32;20185;-61
2023/01/11 04:12:10;;;;;;;0.10;0.10;;;;;;;5.25;88.39;95558.97;4377441;32;20277;-60
2023/01/11 04:14:35;;;;;;;0.10;0.10;;;;;;;5.51;87.35;95562.56;4385471;32;20284;-60
2023/01/11 04:17:01;;;;;;;0.00;0.00;;;;;;;5.21;88.12;95565.78;4374223;32;20272;-60
2023/01/11 04:19:26;;;;;;;0.00;0.00;;;;;;;5.29;88.21;95567.94;4389792;32;20191;-61
2023/01/11 04:21:52;;;;;;;0.10;0.10;;;;;;;5.31;88.64;95565.87;4383518;32;20284;-61
2023/01/11 04:24:17;;;;;;;0.00;0.00;;;;;;;5.33;87.86;95563.78;4368791;32;20234;-61
2023/01/11 04:26:44;;;;;;;0.00;0.00;;;;;;;5.37;87.85;95558.81;4381219;32;20192;-61
2023/01/11 04:29:09;;;;;;;0.00;0.00;;;;;;;5.39;87.63;95562.78;4390443;32;20222;-61
2023/01/11 04:31:35;;;;;;;0.20;0.20;;;;;;;5.52;86.92;95554.41;4390592;32;20272;-61
2023/01/11 04:34:00;;;;;;;0.00;0.00;;;;;;;5.72;85.94;95558.19;4390344;32;20226;-61
2023/01/11 04:36:27;;;;;;;0.00;0.00;;;;;;;5.68;86.14;95552.63;4387748;32;20180;-61
2023/01/11 04:38:53;;;;;;;0.10;0.10;;;;;;;5.75;85.86;95555.84;4389652;32;20211;-61
2023/01/11 04:44:02;;;;;;;0.30;0.30;;;;;;;5.75;85.76;95550.59;4390314;32;20217;-61
2023/01/11 04:46:27;;;;;;;0.03;0.03;;;;;;;5.91;85.35;95548.81;4372799;32;20272;-61
2023/01/11 04:48:55;;;;;;;0.00;0.00;;;;;;;5.88;84.92;95544.03;4389231;32;20239;-61
2023/01/11 04:51:20;;;;;;;0.00;0.00;;;;;;;5.69;85.89;95540.28;4388759;32;20173;-61
2023/01/11 04:53:48;;;;;;;0.20;0.20;;;;;;;5.76;85.55;95546.09;4366715;32;20368;-61
2023/01/11 04:56:13;;;;;;;0.07;0.07;;;;;;;5.78;85.69;95546.66;4368043;32;20216;-61
2023/01/11 04:58:39;;;;;;;0.00;0.00;;;;;;;5.84;84.85;95540.34;4375570;32;20299;-61
2023/01/11 05:01:09;;;;;;;0.00;0.00;;;;;;;5.74;85.08;95543.72;4389277;32;20181;-61
2023/01/11 05:03:35;;;;;;;1.80;0.47;;;;;;;5.82;84.79;95534.53;4374394;32;20184;-61
2023/01/11 05:06:00;;;;;;;0.00;0.00;;;;;;;5.73;85.44;95536.09;4349420;32;20273;-60
2023/01/11 05:08:28;;;;;;;0.20;0.20;;;;;;;5.67;85.42;95531.84;4352818;32;20184;-60
2023/01/11 05:10:55;;;;;;;0.00;0.00;;;;;;;5.72;85.21;95529.25;4388701;32;20207;-61
2023/01/11 05:13:40;;;;;;;0.00;0.00;;;;;;;5.85;84.77;95524.28;4380549;32;20272;-60
2023/01/11 05:16:19;;;;;;;0.10;0.10;;;;;;;5.84;84.05;95522.69;4363603;32;20277;-61
2023/01/11 05:18:54;;;;;;;0.00;0.00;;;;;;;5.87;83.96;95530.09;4370127;32;20331;-61
2023/01/11 05:21:22;;;;;;;0.07;0.07;;;;;;;6.02;83.62;95526.75;4374314;32;20268;-61
2023/01/11 05:23:47;;;;;;;0.00;0.00;;;;;;;5.92;83.65;95521.44;4385581;32;20316;-61
2023/01/11 05:26:18;;;;;;;0.00;0.00;;;;;;;5.88;83.79;95520.34;4364516;32;20276;-61
2023/01/11 05:28:45;;;;;;;0.00;0.00;;;;;;;5.95;83.78;95513.03;4364028;32;20181;-61
2023/01/11 05:31:11;;;;;;;0.00;0.00;;;;;;;6.28;82.25;95513.63;4370151;32;20377;-62
2023/01/11 05:33:36;;;;;;;0.13;0.13;;;;;;;6.35;81.78;95512.34;4363630;32;20281;-62
2023/01/11 05:36:07;;;;;;;0.00;0.00;;;;;;;6.30;82.26;95511.53;4370687;32;20173;-62
2023/01/11 05:38:33;;;;;;;0.10;0.10;;;;;;;6.16;82.69;95517.31;4364399;32;20189;-62
2023/01/11 05:41:01;;;;;;;0.20;0.20;;;;;;;6.28;81.19;95511.00;4383728;32;20306;-62
2023/01/11 05:43:28;;;;;;;0.13;0.13;;;;;;;6.38;81.11;95516.28;4378951;32;20173;-62
2023/01/11 05:45:58;;;;;;;0.00;0.00;;;;;;;6.49;81.18;95516.03;4364663;32;20264;-62
2023/01/11 05:48:24;;;;;;;0.13;0.13;;;;;;;6.24;81.58;95510.72;4381037;32;20317;-62
2023/01/11 05:50:51;;;;;;;0.00;0.00;;;;;;;6.19;81.65;95516.78;4365911;32;20277;-61
2023/01/11 05:53:17;;;;;;;0.00;0.00;;;;;;;6.17;81.77;95510.19;4379397;32;20201;-62
2023/01/11 05:55:56;;;;;;;0.00;0.00;;;;;;;6.11;81.66;95509.38;4361398;32;20277;-61
2023/01/11 05:58:23;;;;;;;0.33;0.30;;;;;;;6.26;81.87;95510.47;4381888;32;20248;-62
2023/01/11 06:00:49;;;;;;;0.07;0.07;;;;;;;6.24;81.37;95515.19;4362764;32;20320;-61
2023/01/11 06:03:15;;;;;;;0.00;0.00;;;;;;;6.11;81.50;95519.91;4372348;32;20272;-61
2023/01/11 06:05:41;;;;;;;0.00;0.00;;;;;;;6.20;81.07;95521.00;4377929;32;20428;-61
2023/01/11 06:08:06;;;;;;;0.00;0.00;;;;;;;6.35;80.66;95522.88;4378620;32;20195;-62
2023/01/11 06:10:32;;;;;;;0.83;0.20;;;;;;;6.59;79.66;95517.91;4379497;32;20208;-61
2023/01/11 06:15:42;;;;;;;0.00;0.00;;;;;;;6.24;80.43;95520.47;4374876;32;21642;-62
2023/01/11 06:18:09;;;;;;;0.10;0.10;;;;;;;6.31;80.27;95521.00;4378198;32;20268;-61
2023/01/11 06:20:34;;;;;;;0.20;0.20;;;;;;;6.50;79.70;95514.19;4378814;32;20348;-61
2023/01/11 06:23:00;;;;;;;0.00;0.00;;;;;;;6.32;79.67;95512.06;4370700;32;20268;-61
2023/01/11 06:25:25;;;;;;;0.10;0.10;;;;;;;6.53;79.31;95506.56;4368871;32;20257;-61
2023/01/11 06:27:53;;;;;;;0.07;0.07;;;;;;;6.46;79.23;95508.66;4374510;32;20173;-62
2023/01/11 06:30:19;;;;;;;0.10;0.10;;;;;;;6.41;79.70;95505.22;4364749;32;20173;-61
2023/01/11 06:32:45;;;;;;;0.20;0.20;;;;;;;6.47;79.80;95512.06;4367468;32;20286;-61
2023/01/11 06:35:10;;;;;;;0.00;0.00;;;;;;;6.48;79.70;95503.13;4378802;32;20288;-62
2023/01/11 06:37:56;;;;;;;0.93;0.80;;;;;;;6.53;79.98;95500.50;4342527;32;20191;-61
2023/01/11 06:40:21;;;;;;;0.07;0.07;;;;;;;6.63;79.92;95497.06;4266675;32;20273;-61
2023/01/11 06:46:14;;;;;;;0.00;0.00;;;;;;;6.54;80.88;95494.16;4384378;32;20199;-61
2023/01/11 06:48:40;;;;;;;0.00;0.00;;;;;;;6.58;80.29;95497.88;4375664;32;20276;-61
2023/01/11 06:51:06;;;;;;;0.00;0.00;;;;;;;6.62;80.13;95498.94;4388643;32;20386;-61
2023/01/11 06:53:31;;;;;;;0.37;0.37;;;;;;;6.65;78.91;95506.28;4389791;32;20237;-61
2023/01/11 06:55:57;;;;;;;0.10;0.10;;;;;;;6.81;78.18;95504.44;4389701;32;20276;-61
2023/01/11 06:58:24;;;;;;;0.10;0.10;;;;;;;6.75;78.90;95516.84;4386976;32;20189;-62
2023/01/11 07:00:51;;;;;;;0.20;0.20;;;;;;;6.88;78.11;95520.78;4365074;32;20192;-62
2023/01/11 07:03:19;;;;;;;0.10;0.10;;;;;;;6.85;78.23;95516.84;4378388;32;20272;-61
2023/01/11 07:05:47;;;;;;;0.23;0.23;;;;;;;6.92;77.67;95508.66;4380327;32;20334;-61
2023/01/11 07:08:13;;;;;;;0.10;0.10;;;;;;;7.03;77.08;95514.72;4303682;32;20282;-61
2023/01/11 07:10:38;;;;;;;0.00;0.00;;;;;;;7.05;76.92;95517.88;4358857;32;20288;-61
2023/01/11 07:13:04;;;;;;;0.10;0.10;;;;;;;7.10;76.86;95512.59;4364160;32;20177;-61
2023/01/11 07:15:33;;;;;;;0.50;0.50;;;;;;;7.13;76.68;95517.31;4361283;32;20189;-62
2023/01/11 07:17:59;;;;;;;5.20;0.83;;;;;;;7.09;76.91;95505.72;4319705;32;20205;-62
2023/01/11 07:20:28;;;;;;;1.57;1.47;;;;;;;7.11;76.84;95508.88;4342160;32;20302;-62
2023/01/11 07:23:00;;;;;;;2.43;1.00;;;;;;;7.02;77.58;95507.88;4309417;32;20181;-62
2023/01/11 07:25:27;;;;;;;2.10;0.53;;;;;;;7.01;76.61;95509.72;4322544;32;20277;-61
2023/01/11 07:28:01;;;;;;;0.20;0.20;;;;;;;7.16;76.52;95507.03;4312050;32;20292;-62
2023/01/11 07:30:32;;;;;;;0.20;0.20;;;;;;;7.00;76.66;95513.41;4342878;32;20276;-61
2023/01/11 07:32:58;;;;;;;0.10;0.10;;;;;;;6.98;76.89;95509.44;4351174;32;20303;-61
2023/01/11 07:35:24;;;;;;;0.00;0.00;;;;;;;6.93;76.45;95510.22;4376539;32;20353;-62
2023/01/11 07:37:49;;;;;;;0.00;0.00;;;;;;;6.79;75.61;95506.56;4348523;32;20277;-61
2023/01/11 07:40:16;;;;;;;0.30;0.10;;;;;;;6.73;76.35;95512.88;4312306;32;20208;-62
2023/01/11 07:45:34;;;;;;;0.40;0.20;;;;;;;6.98;75.88;95504.97;4377151;32;20396;-62
2023/01/11 07:48:01;;;;;;;0.53;0.53;;;;;;;6.90;75.68;95508.91;4388692;32;20306;-62
2023/01/11 07:50:27;;;;;;;0.00;0.00;;;;;;;7.07;76.07;95502.56;4389120;32;20268;-61
2023/01/11 07:52:52;;;;;;;0.03;0.03;;;;;;;7.03;76.25;95510.25;4378538;32;20261;-61
2023/01/11 07:55:17;;;;;;;0.20;0.20;;;;;;;6.92;76.57;95515.78;4372943;32;20211;-61
2023/01/11 07:57:47;;;;;;;0.10;0.10;;;;;;;7.01;77.13;95507.06;4385714;32;20177;-59
2023/01/11 08:00:13;;;;;;;0.03;0.03;;;;;;;7.18;75.79;95502.28;4377123;32;20255;-61
2023/01/11 08:02:38;;;;;;;0.13;0.13;;;;;;;7.23;75.99;95512.06;4370291;32;20339;-59
2023/01/11 08:05:04;;;;;;;0.30;0.30;;;;;;;7.09;76.65;95508.38;4375219;32;20353;-59
2023/01/11 08:07:30;;;;;;;0.10;0.10;;;;;;;7.08;77.41;95510.22;4379756;32;20177;-59
2023/01/11 08:09:55;;;;;;;0.13;0.13;;;;;;;7.04;77.25;95503.91;4360588;32;20243;-59
2023/01/11 08:15:05;;;;;;;0.00;0.00;;;;;;;7.08;78.29;95498.88;4378918;32;20194;-59
2023/01/11 08:17:32;;;;;;;0.10;0.10;;;;;;;7.10;77.91;95502.03;4367175;32;20280;-59
2023/01/11 08:19:58;;;;;;;0.10;0.10;;;;;;;7.04;77.50;95496.00;4387911;32;20168;-59
2023/01/11 08:22:23;;;;;;;0.33;0.33;;;;;;;7.14;77.44;95497.81;4379595;32;20347;-62
2023/01/11 08:24:49;;;;;;;0.30;0.30;;;;;;;7.32;76.71;95497.25;4381464;32;20180;-61
2023/01/11 08:27:14;;;;;;;0.00;0.00;;;;;;;7.15;77.02;95499.38;4367675;32;20248;-60
2023/01/11 08:29:43;;;;;;;0.00;0.00;;;;;;;7.27;78.45;95491.22;4367538;32;20172;-60
2023/01/11 08:32:09;;;;;;;0.20;0.20;;;;;;;7.50;76.93;95486.09;4377409;32;20184;-62
2023/01/11 08:34:34;;;;;;;0.20;0.20;;;;;;;7.60;76.31;95490.56;4385238;32;20276;-62
2023/01/11 08:37:01;;;;;;;0.20;0.20;;;;;;;7.64;76.23;95481.03;4370701;32;20256;-60
2023/01/11 08:39:30;;;;;;;0.00;0.00;;;;;;;7.74;75.88;95475.72;4357602;32;20333;-58
2023/01/11 08:41:57;;;;;;;0.13;0.13;;;;;;;7.78;76.07;95483.88;4367100;32;20286;-59
2023/01/11 08:44:22;;;;;;;0.20;0.20;;;;;;;7.88;74.64;95473.28;4378679;32;20275;-62
2023/01/11 08:46:47;;;;;;;0.13;0.13;;;;;;;7.92;74.56;95471.66;4354683;32;20295;-59
2023/01/11 08:49:13;;;;;;;0.10;0.10;;;;;;;8.06;74.61;95471.88;4378060;32;20207;-58
2023/01/11 08:51:39;;;;;;;1.80;0.13;;;;;;;8.31;73.01;95463.00;4362636;32;20192;-58
2023/01/11 08:54:08;;;;;;;0.00;0.00;;;;;;;8.40;72.36;95467.44;4383138;32;20203;-58
2023/01/11 08:56:35;;;;;;;0.10;0.10;;;;;;;8.51;71.14;95454.94;4374913;32;20312;-58
2023/01/11 08:59:01;;;;;;;0.37;0.37;;;;;;;8.51;71.17;95457.59;4374306;32;20272;-58
2023/01/11 09:01:26;;;;;;;0.10;0.10;;;;;;;8.28;72.22;95454.53;4379437;32;20273;-58
2023/01/11 09:03:52;;;;;;;0.10;0.10;;;;;;;8.60;70.76;95462.00;4385342;32;20271;-61
2023/01/11 09:06:17;;;;;;;0.07;0.07;;;;;;;8.81;70.24;95451.25;4372581;32;20200;-58
2023/01/11 09:08:43;;;;;;;0.20;0.20;;;;;;;8.64;70.74;95445.56;4372189;32;20193;-60
2023/01/11 09:11:52;;;;;;;1.73;0.30;;;;;;;8.57;71.09;95445.88;4367255;32;20214;-58
2023/01/11 09:13:53;;;;;;;0.20;0.20;;;;;;;8.66;71.42;95449.53;4370587;32;20232;-58
2023/01/11 09:16:19;;;;;;;0.73;0.20;;;;;;;8.85;70.07;95447.75;4375334;32;20188;-57
2023/01/11 09:18:44;;;;;;;0.10;0.10;;;;;;;8.71;70.80;95444.19;4374323;32;20203;-59
2023/01/11 09:21:09;;;;;;;0.40;0.40;;;;;;;8.89;69.79;95448.00;4375003;32;20200;-58
2023/01/11 09:23:35;;;;;;;0.10;0.10;;;;;;;9.18;68.66;95440.03;4358860;32;20286;-58
2023/01/11 09:26:01;;;;;;;0.60;0.60;;;;;;;9.15;68.19;95440.56;4356773;32;20250;-58
2023/01/11 09:28:26;;;;;;;0.30;0.30;;;;;;;9.21;68.29;95442.91;4357841;32;20220;-58
2023/01/11 09:30:52;;;;;;;0.10;0.10;;;;;;;9.33;68.53;95447.03;4360421;32;20199;-61
2023/01/11 09:33:19;;;;;;;0.30;0.30;;;;;;;9.29;68.45;95442.28;4380587;32;20193;-64
2023/01/11 09:35:45;;;;;;;0.23;0.23;;;;;;;9.17;68.65;95449.03;4369297;32;20226;-60
2023/01/11 09:38:11;;;;;;;0.97;0.50;;;;;;;9.02;69.12;95435.97;4369761;32;20215;-59
2023/01/11 09:41:08;;;;;;;0.40;0.37;;;;;;;9.15;69.08;95432.62;4377484;32;20232;-58
2023/01/11 09:43:48;;;;;;;0.13;0.13;;;;;;;9.39;68.45;95428.13;4345763;32;20220;-60
2023/01/11 09:46:14;;;;;;;0.13;0.13;;;;;;;9.28;67.94;95438.06;4344595;32;20196;-61
2023/01/11 09:48:47;;;;;;;0.33;0.33;;;;;;;9.30;68.77;95433.28;4353495;32;20207;-58
2023/01/11 09:51:15;;;;;;;0.00;0.00;;;;;;;9.19;68.62;95431.00;4373133;32;20372;-58
2023/01/11 09:53:49;;;;;;;0.20;0.20;;;;;;;9.36;68.22;95427.91;4370350;32;20220;-60
2023/01/11 09:56:23;;;;;;;0.20;0.20;;;;;;;9.61;68.09;95427.63;4372683;32;20187;-59
2023/01/11 09:58:49;;;;;;;0.17;0.17;;;;;;;9.77;67.44;95430.88;4371268;32;20207;-60
2023/01/11 10:01:49;;;;;;;0.70;0.33;;;;;;;9.74;67.90;95426.16;4373733;32;20202;-58
2023/01/11 10:04:32;;;;;;;0.17;0.17;;;;;;;9.86;67.05;95423.84;4354303;32;20220;-61
2023/01/11 10:07:21;;;;;;;0.53;0.53;;;;;;;9.85;66.95;95428.37;4359269;32;20193;-61
2023/01/11 10:10:20;;;;;;;0.27;0.27;;;;;;;9.81;67.16;95426.56;4366623;32;20232;-61
2023/01/11 10:13:03;;;;;;;0.40;0.40;;;;;;;9.80;68.77;95427.63;4358234;32;20227;-60
2023/01/11 10:15:45;;;;;;;0.20;0.20;;;;;;;9.72;68.33;95425.63;4382828;32;20188;-61
2023/01/11 10:18:25;;;;;;;2.97;0.77;;;;;;;9.84;67.27;95433.94;4374811;32;20196;-57
2023/01/11 10:20:56;;;;;;;0.13;0.13;;;;;;;9.87;67.48;95431.53;4387934;32;20196;-56
2023/01/11 10:23:30;;;;;;;0.23;0.23;;;;;;;10.26;66.97;95428.59;4373811;32;20235;-57
2023/01/11 10:26:05;;;;;;;0.30;0.30;;;;;;;10.30;66.27;95434.91;4341293;32;20220;-59
2023/01/11 10:28:59;;;;;;;0.43;0.43;;;;;;;10.25;65.40;95424.38;4369679;32;20211;-59
2023/01/11 10:31:46;;;;;;;0.40;0.30;;;;;;;10.73;65.38;95424.16;4378689;32;20240;-59
2023/01/11 10:43:21;;;;;;;0.67;0.67;;;;;;;10.41;64.76;95418.84;4333341;32;20226;-59
2023/01/11 10:45:54;;;;;;;0.30;0.30;;;;;;;10.37;65.68;95412.56;4371394;32;20240;-58
2023/01/11 10:48:28;;;;;;;0.10;0.10;;;;;;;10.12;66.27;95417.12;4375196;32;20236;-58
2023/01/11 10:51:08;;;;;;;0.60;0.60;;;;;;;10.12;65.95;95409.19;4372221;32;20206;-58
2023/01/11 10:53:39;;;;;;;0.83;0.30;;;;;;;10.31;67.13;95409.19;4352246;32;20220;-58
2023/01/11 10:56:17;;;;;;;0.13;0.07;;;;;;;10.25;66.46;95405.03;4362808;32;20200;-58
2023/01/11 10:59:20;;;;;;;0.63;0.40;;;;;;;10.29;65.85;95406.81;4369448;32;20406;-59
2023/01/11 11:02:15;;;;;;;1.47;1.37;;;;;;;10.24;65.88;95396.28;4380931;32;20192;-58
2023/01/11 11:04:40;;;;;;;0.67;0.67;;;;;;;10.36;65.89;95395.06;4374053;32;20256;-58
2023/01/11 11:07:45;;;;;;;0.30;0.30;;;;;;;10.51;65.97;95392.16;4362050;32;20300;-58
2023/01/11 11:10:17;;;;;;;0.80;0.50;;;;;;;10.41;65.80;95387.00;4340226;32;20298;-59
2023/01/11 11:13:19;;;;;;;0.43;0.43;;;;;;;10.48;65.21;95380.25;4359703;32;20291;-58
2023/01/11 11:16:22;;;;;;;0.50;0.50;;;;;;;10.77;63.64;95376.59;4319254;32;20230;-58
2023/01/11 11:18:54;;;;;;;0.53;0.53;;;;;;;10.63;65.42;95380.00;4370221;32;20192;-58
2023/01/11 11:21:33;;;;;;;0.77;0.73;;;;;;;10.63;64.39;95377.34;4351432;32;20212;-58
2023/01/11 11:24:07;;;;;;;0.40;0.40;;;;;;;10.72;64.71;95371.38;4363831;32;20281;-58
2023/01/11 11:26:40;;;;;;;0.23;0.23;;;;;;;10.80;64.04;95378.69;4374371;32;20196;-58
2023/01/11 11:29:18;;;;;;;0.30;0.30;;;;;;;10.69;64.35;95372.75;4385549;32;20188;-58
2023/01/11 11:31:45;;;;;;;0.10;0.10;;;;;;;10.88;64.14;95370.03;4372731;32;20211;-58
2023/01/11 11:34:20;;;;;;;0.40;0.40;;;;;;;10.89;63.63;95367.06;4372398;32;20247;-58
2023/01/11 11:36:49;;;;;;;0.50;0.50;;;;;;;10.91;63.23;95366.78;4346672;32;20219;-58
2023/01/11 11:39:23;;;;;;;0.13;0.13;;;;;;;10.85;63.58;95357.34;4359782;32;20295;-57
2023/01/11 11:41:51;;;;;;;0.60;0.53;;;;;;;10.93;63.58;95341.53;4371188;32;20191;-58
2023/01/11 11:44:20;;;;;;;0.63;0.40;;;;;;;10.86;63.21;95346.44;4369171;32;20210;-57
2023/01/11 11:47:05;;;;;;;0.10;0.10;;;;;;;10.98;62.97;95344.09;4385432;32;20200;-58
2023/01/11 11:49:35;;;;;;;0.30;0.30;;;;;;;10.98;62.95;95338.78;4364062;32;20244;-58
2023/01/11 11:52:03;;;;;;;0.20;0.20;;;;;;;11.03;64.16;95341.31;4375588;32;20215;-58
2023/01/11 11:54:31;;;;;;;0.67;0.67;;;;;;;11.21;63.14;95336.22;4370000;32;20196;-56
2023/01/11 11:56:59;;;;;;;0.30;0.30;;;;;;;11.10;63.14;95332.97;4385699;32;20205;-58
2023/01/11 11:59:28;;;;;;;0.30;0.30;;;;;;;11.06;63.03;95331.19;4387843;32;20249;-58
2023/01/11 12:02:01;;;;;;;0.00;0.00;;;;;;;11.21;63.44;95326.38;4363912;32;20252;-60
2023/01/11 12:04:48;;;;;;;0.73;0.57;;;;;;;11.10;63.01;95322.34;4359484;32;20328;-58
2023/01/11 12:07:27;;;;;;;0.47;0.47;;;;;;;11.19;63.06;95317.12;4372964;32;20189;-58
2023/01/11 12:10:02;;;;;;;0.20;0.20;;;;;;;11.31;63.06;95317.41;4374011;32;20228;-59
2023/01/11 12:12:31;;;;;;;0.27;0.27;;;;;;;11.39;62.41;95311.41;4375888;32;20206;-57
2023/01/11 12:15:14;;;;;;;0.13;0.13;;;;;;;11.43;62.41;95315.00;4375011;32;20219;-57
2023/01/11 12:17:41;;;;;;;0.47;0.47;;;;;;;11.41;63.14;95308.44;4359025;32;20239;-58
2023/01/11 12:20:21;;;;;;;0.40;0.40;;;;;;;11.48;63.68;95311.47;4357020;32;20232;-62
2023/01/11 12:23:11;;;;;;;3.23;0.37;;;;;;;11.42;63.71;95318.78;4344396;32;20268;-58
2023/01/11 12:26:24;;;;;;;0.47;0.33;;;;;;;11.60;63.28;95312.53;4375593;32;20193;-58
2023/01/11 12:29:41;;;;;;;0.20;0.20;;;;;;;11.57;63.23;95312.34;4388260;32;20211;-58
2023/01/11 12:32:24;;;;;;;0.30;0.30;;;;;;;11.63;63.20;95317.25;4371364;32;20206;-57
2023/01/11 12:35:01;;;;;;;0.23;0.23;;;;;;;11.58;63.57;95311.25;4366870;32;20236;-57